Time;durP1;ratioP1;P1;durP2;ratioP2;P2;SDS_P1;SDS_P2;PMS_P1;PMS_P2;Temp;Humidity;BMP_temperature;BMP_pressure;BME280_temperature;BME280_humidity;BME280_pressure;Samples;Min_cycle;Max_cycle;Signal;HPM_P1;HPM_P2
2023/11/01 00:01:17;;;;;;;2.95;1.38;;;;;;;10.39;100.00;98273.81;5027539;28;20033;-74
2023/11/01 00:03:43;;;;;;;2.47;1.10;;;;;;;10.44;100.00;98258.59;5044064;28;20048;-74
2023/11/01 00:06:08;;;;;;;2.33;1.08;;;;;;;10.52;100.00;98276.44;5044708;28;20047;-74
2023/11/01 00:08:33;;;;;;;3.75;0.90;;;;;;;10.58;100.00;98283.69;5041778;28;20025;-74
2023/11/01 00:10:59;;;;;;;1.45;0.80;;;;;;;10.55;100.00;98264.38;5040855;28;20048;-74
2023/11/01 00:13:24;;;;;;;2.90;0.88;;;;;;;10.57;100.00;98276.63;5043324;28;20028;-74
2023/11/01 00:15:49;;;;;;;3.50;1.08;;;;;;;10.51;100.00;98272.91;5031137;28;20060;-74
2023/11/01 00:18:14;;;;;;;4.80;1.00;;;;;;;10.44;100.00;98255.88;5021982;28;20048;-73
2023/11/01 00:20:40;;;;;;;3.42;0.90;;;;;;;10.42;100.00;98257.16;5044725;28;20024;-74
2023/11/01 00:23:05;;;;;;;6.00;0.80;;;;;;;10.45;100.00;98257.56;5026353;28;20021;-75
2023/11/01 00:25:30;;;;;;;2.50;1.00;;;;;;;10.57;100.00;98262.28;5044291;28;20068;-74
2023/11/01 00:27:56;;;;;;;1.83;0.80;;;;;;;10.49;100.00;98256.06;5043014;28;20596;-76
2023/11/01 00:30:21;;;;;;;4.03;0.80;;;;;;;10.47;100.00;98243.81;5025200;28;20030;-74
2023/11/01 00:32:46;;;;;;;1.67;0.70;;;;;;;10.53;100.00;98237.53;5043742;28;20028;-73
2023/11/01 00:35:11;;;;;;;2.83;0.90;;;;;;;10.52;100.00;98244.81;5042326;28;21145;-73
2023/11/01 00:37:37;;;;;;;1.52;0.77;;;;;;;10.57;100.00;98260.41;5043322;28;20032;-75
2023/11/01 00:40:02;;;;;;;1.33;0.70;;;;;;;10.47;100.00;98249.22;5018222;28;20254;-74
2023/11/01 00:42:28;;;;;;;1.88;0.70;;;;;;;10.45;100.00;98257.56;5025391;28;20044;-74
2023/11/01 00:44:54;;;;;;;2.95;0.77;;;;;;;10.38;100.00;98239.72;5023860;28;20075;-74
2023/11/01 00:47:19;;;;;;;4.85;0.85;;;;;;;10.41;100.00;98256.31;5017194;28;20327;-73
2023/11/01 00:49:44;;;;;;;4.25;0.90;;;;;;;10.42;100.00;98259.84;5043602;28;20047;-74
2023/11/01 00:52:10;;;;;;;1.90;0.70;;;;;;;10.21;100.00;98232.03;5043623;28;20025;-74
2023/11/01 00:54:35;;;;;;;2.38;0.85;;;;;;;10.31;100.00;98247.84;5026882;28;20017;-73
2023/11/01 00:57:00;;;;;;;3.70;0.80;;;;;;;10.36;100.00;98258.03;5036135;28;20218;-74
2023/11/01 00:59:25;;;;;;;4.28;0.93;;;;;;;10.38;100.00;98242.41;5045044;28;20029;-73
2023/11/01 01:01:51;;;;;;;1.77;0.90;;;;;;;10.42;100.00;98246.34;5023280;28;20025;-72
2023/11/01 01:04:16;;;;;;;3.63;1.17;;;;;;;10.43;100.00;98237.19;5023766;28;20037;-74
2023/11/01 01:06:41;;;;;;;5.80;1.25;;;;;;;10.48;100.00;98248.19;5026120;28;20025;-75
2023/11/01 01:09:07;;;;;;;2.58;0.80;;;;;;;10.45;100.00;98245.91;5042088;28;20029;-75
2023/11/01 01:11:32;;;;;;;2.47;0.70;;;;;;;10.42;100.00;98241.75;5043565;28;20040;-74
2023/11/01 01:13:58;;;;;;;1.42;0.70;;;;;;;10.41;100.00;98233.88;5043163;28;20060;-74
2023/11/01 01:16:23;;;;;;;2.50;0.88;;;;;;;10.41;100.00;98241.97;5040722;28;20025;-73
2023/11/01 01:18:48;;;;;;;2.63;0.70;;;;;;;10.40;100.00;98219.53;5041371;28;20086;-74
2023/11/01 01:21:14;;;;;;;4.63;0.95;;;;;;;10.45;100.00;98240.47;5037795;28;20337;-75
2023/11/01 01:23:39;;;;;;;1.42;0.60;;;;;;;10.46;100.00;98245.69;5042789;28;20037;-74
2023/11/01 01:26:05;;;;;;;3.05;0.80;;;;;;;10.33;100.00;98231.41;5023513;28;20089;-74
2023/11/01 01:28:30;;;;;;;2.58;0.85;;;;;;;10.51;100.00;98247.75;5025055;28;20222;-74
2023/11/01 01:30:55;;;;;;;5.82;0.90;;;;;;;10.45;100.00;98237.78;5041150;28;20033;-74
2023/11/01 01:33:21;;;;;;;1.83;0.60;;;;;;;10.39;100.00;98208.91;5043146;28;20274;-74
2023/11/01 01:35:46;;;;;;;2.67;0.93;;;;;;;10.49;100.00;98222.78;5041497;28;20021;-75
2023/11/01 01:38:11;;;;;;;5.10;0.90;;;;;;;10.46;100.00;98226.75;5042309;28;20025;-75
2023/11/01 01:40:36;;;;;;;5.03;0.80;;;;;;;10.50;100.00;98208.22;5039973;28;20053;-73
2023/11/01 01:43:16;;;;;;;2.90;0.52;;;;;;;10.47;100.00;98205.94;5025332;28;20021;-74
2023/11/01 01:45:41;;;;;;;;;;;;;;;10.55;100.00;98207.56;5045223;28;20021;-74
2023/11/01 01:48:07;;;;;;;2.17;0.70;;;;;;;10.53;100.00;98205.91;5043242;28;19990;-74
2023/11/01 01:50:33;;;;;;;1.35;0.68;;;;;;;10.55;100.00;98207.56;5042502;28;20028;-73
2023/11/01 01:52:58;;;;;;;2.28;0.70;;;;;;;10.54;100.00;98204.03;5043596;28;20206;-73
2023/11/01 01:55:23;;;;;;;4.10;0.80;;;;;;;10.58;100.00;98197.13;5042772;28;20029;-74
2023/11/01 01:57:49;;;;;;;3.22;0.75;;;;;;;10.56;100.00;98183.03;5042099;28;20021;-74
2023/11/01 02:00:15;;;;;;;12.48;0.88;;;;;;;10.52;100.00;98182.59;5041606;28;20249;-73
2023/11/01 02:02:40;;;;;;;4.32;0.73;;;;;;;10.61;100.00;98176.94;5043479;28;20089;-75
2023/11/01 02:05:06;;;;;;;2.60;0.60;;;;;;;10.55;100.00;98180.53;5038072;28;20025;-74
2023/11/01 02:07:32;;;;;;;1.27;0.70;;;;;;;10.58;100.00;98183.59;5023740;28;20089;-75
2023/11/01 02:09:57;;;;;;;4.03;0.80;;;;;;;10.63;100.00;98178.38;5021441;28;20044;-74
2023/11/01 02:12:25;;;;;;;3.42;0.80;;;;;;;10.63;100.00;98175.66;5043985;28;20017;-74
2023/11/01 02:14:51;;;;;;;2.93;0.90;;;;;;;10.66;100.00;98171.69;5042704;28;20084;-74
2023/11/01 02:17:17;;;;;;;3.00;0.85;;;;;;;10.42;100.00;98160.63;5042062;28;20076;-76
2023/11/01 02:19:42;;;;;;;6.13;0.60;;;;;;;10.40;100.00;98156.47;5028886;28;20031;-75
2023/11/01 02:22:08;;;;;;;3.92;0.60;;;;;;;10.52;100.00;98174.50;5043059;28;20059;-75
2023/11/01 02:24:33;;;;;;;3.28;0.98;;;;;;;10.41;100.00;98172.50;5039413;28;20029;-75
2023/11/01 02:27:00;;;;;;;4.45;0.80;;;;;;;10.38;100.00;98169.41;5042749;28;20036;-75
2023/11/01 02:29:25;;;;;;;1.92;0.90;;;;;;;10.41;100.00;98177.06;5042691;28;20100;-75
2023/11/01 02:31:51;;;;;;;7.10;0.77;;;;;;;10.39;100.00;98162.94;5040858;28;20286;-75
2023/11/01 02:34:17;;;;;;;3.80;0.60;;;;;;;10.45;100.00;98159.34;5041034;28;20029;-75
2023/11/01 02:36:42;;;;;;;2.85;0.82;;;;;;;10.50;100.00;98170.34;5026008;28;20017;-75
2023/11/01 02:39:08;;;;;;;2.70;0.60;;;;;;;10.49;100.00;98149.78;5042694;28;20056;-75
2023/11/01 02:41:34;;;;;;;3.17;0.77;;;;;;;10.50;100.00;98148.72;5037831;28;20018;-75
2023/11/01 02:43:59;;;;;;;5.15;0.60;;;;;;;10.60;100.00;98146.34;5040890;28;20230;-75
2023/11/01 02:46:24;;;;;;;3.38;0.70;;;;;;;10.55;100.00;98139.94;5042271;28;20029;-75
2023/11/01 02:48:50;;;;;;;2.80;0.57;;;;;;;10.45;100.00;98132.31;5018808;28;20069;-75
2023/11/01 02:51:15;;;;;;;2.25;0.65;;;;;;;10.51;100.00;98134.16;5039316;28;20033;-74
2023/11/01 02:53:40;;;;;;;5.82;0.70;;;;;;;10.53;100.00;98138.31;5041960;28;20029;-75
2023/11/01 02:56:06;;;;;;;2.08;0.90;;;;;;;10.53;100.00;98126.63;5042477;28;20017;-75
2023/11/01 02:58:33;;;;;;;1.38;0.77;;;;;;;10.49;100.00;98134.38;5024951;28;20033;-75
2023/11/01 03:00:59;;;;;;;2.17;0.50;;;;;;;10.59;100.00;98146.59;5042066;28;20025;-75
2023/11/01 03:03:27;;;;;;;6.40;0.90;;;;;;;10.53;100.00;98140.16;5044808;28;20088;-75
2023/11/01 03:05:53;;;;;;;6.13;1.00;;;;;;;10.52;100.00;98139.34;5045723;28;20227;-75
2023/11/01 03:08:18;;;;;;;1.20;0.43;;;;;;;10.53;100.00;98137.44;5046226;28;20088;-75
2023/11/01 03:10:43;;;;;;;3.40;0.65;;;;;;;10.48;100.00;98131.91;5045107;28;20092;-75
2023/11/01 03:13:09;;;;;;;1.75;0.60;;;;;;;10.53;100.00;98140.16;5045758;28;20025;-73
2023/11/01 03:15:34;;;;;;;3.17;0.50;;;;;;;10.61;100.00;98137.22;5049248;28;20021;-75
2023/11/01 03:18:00;;;;;;;2.17;0.50;;;;;;;10.58;100.00;98129.50;5050356;28;20326;-75
2023/11/01 03:20:25;;;;;;;2.15;0.70;;;;;;;10.66;100.00;98136.53;5045937;28;20029;-75
2023/11/01 03:22:50;;;;;;;4.50;0.70;;;;;;;10.61;100.00;98129.09;5032554;28;20093;-75
2023/11/01 03:25:16;;;;;;;3.53;0.85;;;;;;;10.63;100.00;98110.75;5045316;28;20040;-75
2023/11/01 03:27:41;;;;;;;2.40;0.55;;;;;;;10.72;100.00;98120.25;5027877;28;20025;-75
2023/11/01 03:30:07;;;;;;;1.63;0.55;;;;;;;10.73;100.00;98111.06;5048555;28;20108;-76
2023/11/01 03:32:33;;;;;;;3.63;0.63;;;;;;;10.78;100.00;98107.72;5044595;28;20021;-75
2023/11/01 03:34:58;;;;;;;1.52;0.68;;;;;;;10.82;100.00;98114.34;5029674;28;20306;-75
2023/11/01 03:37:23;;;;;;;2.65;0.90;;;;;;;10.67;100.00;98113.84;5046051;28;20029;-75
2023/11/01 03:39:49;;;;;;;6.00;0.70;;;;;;;10.61;100.00;98112.00;5045577;28;20274;-75
2023/11/01 03:42:14;;;;;;;6.35;0.73;;;;;;;10.69;100.00;98123.41;5044883;28;20338;-75
2023/11/01 03:44:39;;;;;;;4.03;0.63;;;;;;;10.69;100.00;98111.75;5045391;28;20021;-75
2023/11/01 03:47:04;;;;;;;2.88;0.57;;;;;;;10.69;100.00;98122.59;5027523;28;20025;-75
2023/11/01 03:49:30;;;;;;;2.78;0.60;;;;;;;10.59;100.00;98109.53;5045428;28;20059;-74
2023/11/01 03:52:00;;;;;;;6.90;0.93;;;;;;;10.58;100.00;98110.56;5027062;28;20040;-74
2023/11/01 03:54:25;;;;;;;6.32;0.98;;;;;;;10.61;100.00;98112.00;5045044;28;20029;-74
2023/11/01 03:56:51;;;;;;;2.30;0.50;;;;;;;10.66;100.00;98118.44;5045251;28;20071;-74
2023/11/01 03:59:17;;;;;;;1.63;0.68;;;;;;;10.63;100.00;98110.75;5034894;28;20289;-74
2023/11/01 04:01:42;;;;;;;2.83;0.47;;;;;;;10.55;100.00;98102.09;5044789;28;20088;-74
2023/11/01 04:04:07;;;;;;;4.47;0.70;;;;;;;10.46;100.00;98107.75;5044013;28;20036;-75
2023/11/01 04:06:33;;;;;;;3.13;0.80;;;;;;;10.43;100.00;98115.50;5043089;28;20041;-75
2023/11/01 04:08:58;;;;;;;3.15;0.65;;;;;;;10.38;100.00;98102.63;5027383;28;20017;-75
2023/11/01 04:11:24;;;;;;;5.93;1.02;;;;;;;10.35;100.00;98089.56;5045009;28;20072;-75
2023/11/01 04:13:49;;;;;;;1.27;0.45;;;;;;;10.37;100.00;98089.31;5029669;28;20087;-75
2023/11/01 04:16:15;;;;;;;5.05;0.85;;;;;;;10.37;100.00;98090.13;5026315;28;20037;-74
2023/11/01 04:18:40;;;;;;;3.08;0.93;;;;;;;10.34;100.00;98076.25;5036463;28;20027;-75
2023/11/01 04:21:06;;;;;;;2.92;0.60;;;;;;;10.37;100.00;98090.13;5044391;28;20025;-74
2023/11/01 04:23:31;;;;;;;5.15;0.65;;;;;;;10.34;100.00;98093.28;5028584;28;20041;-75
2023/11/01 04:25:56;;;;;;;2.70;0.77;;;;;;;10.21;100.00;98086.06;5028560;28;20057;-75
2023/11/01 04:28:21;;;;;;;1.08;0.52;;;;;;;10.34;100.00;98103.28;5043985;28;20060;-74
2023/11/01 04:30:47;;;;;;;3.17;0.70;;;;;;;10.26;100.00;98093.53;5025978;28;20025;-74
2023/11/01 04:33:12;;;;;;;4.53;0.63;;;;;;;10.29;100.00;98083.13;5044445;28;20228;-74
2023/11/01 04:35:37;;;;;;;4.60;0.77;;;;;;;10.30;100.00;98076.69;5044687;28;20047;-75
2023/11/01 04:38:03;;;;;;;1.77;0.70;;;;;;;10.31;100.00;98083.75;5044397;28;20088;-74
2023/11/01 04:40:29;;;;;;;3.53;0.50;;;;;;;10.30;100.00;98076.69;5036034;28;20088;-74
2023/11/01 04:42:55;;;;;;;3.33;0.43;;;;;;;10.15;100.00;98054.50;5044308;28;20025;-76
2023/11/01 04:45:20;;;;;;;1.30;0.57;;;;;;;10.22;100.00;98074.22;5043298;28;20064;-74
2023/11/01 04:47:46;;;;;;;2.97;0.80;;;;;;;10.04;100.00;98066.84;5044442;28;20030;-74
2023/11/01 04:50:13;;;;;;;3.65;1.10;;;;;;;9.98;100.00;98067.75;5043998;28;20029;-74
2023/11/01 04:52:40;;;;;;;3.20;0.77;;;;;;;10.00;100.00;98075.59;5031763;28;20315;-74
2023/11/01 04:55:05;;;;;;;2.08;0.43;;;;;;;9.84;100.00;98072.38;5038235;28;20033;-74
2023/11/01 04:57:31;;;;;;;2.50;0.55;;;;;;;9.78;100.00;98067.03;5043707;28;20067;-75
2023/11/01 04:59:57;;;;;;;7.40;1.05;;;;;;;9.72;100.00;98087.63;5026403;28;20029;-75
2023/11/01 05:02:22;;;;;;;7.15;0.70;;;;;;;9.60;100.00;98070.44;5043106;28;20032;-75
2023/11/01 05:04:48;;;;;;;6.63;0.60;;;;;;;9.61;100.00;98066.66;5038020;28;20026;-75
2023/11/01 05:07:13;;;;;;;5.50;0.52;;;;;;;9.52;100.00;98051.78;5022768;28;20040;-75
2023/11/01 05:09:38;;;;;;;1.40;0.55;;;;;;;9.63;100.00;98051.09;5043710;28;20023;-74
2023/11/01 05:12:04;;;;;;;2.83;0.70;;;;;;;9.61;100.00;98047.78;5043747;28;20036;-74
2023/11/01 05:14:29;;;;;;;10.48;1.77;;;;;;;9.55;100.00;98062.16;5043547;28;20040;-74
2023/11/01 05:16:56;;;;;;;4.57;0.60;;;;;;;9.43;100.00;98059.28;5043276;28;20028;-76
2023/11/01 05:19:21;;;;;;;2.55;0.70;;;;;;;9.27;100.00;98040.88;5043461;28;20204;-75
2023/11/01 05:21:47;;;;;;;4.30;0.80;;;;;;;9.41;100.00;98054.09;5043549;28;20097;-74
2023/11/01 05:24:12;;;;;;;2.42;0.57;;;;;;;9.39;100.00;98055.34;5043232;28;20029;-75
2023/11/01 05:26:37;;;;;;;3.90;0.88;;;;;;;9.31;100.00;98056.44;5025457;28;20083;-74
2023/11/01 05:29:04;;;;;;;2.20;0.47;;;;;;;9.19;100.00;98050.03;5043267;28;20203;-74
2023/11/01 05:31:29;;;;;;;2.45;0.40;;;;;;;9.23;100.00;98056.66;5042688;28;20025;-75
2023/11/01 05:33:55;;;;;;;4.72;0.52;;;;;;;9.18;100.00;98040.28;5043304;28;20278;-75
2023/11/01 05:36:21;;;;;;;3.25;0.50;;;;;;;9.20;100.00;98046.31;5042863;28;20242;-75
2023/11/01 05:38:46;;;;;;;3.10;0.50;;;;;;;9.10;100.00;98029.72;5024095;28;20064;-78
2023/11/01 05:41:12;;;;;;;3.10;0.60;;;;;;;9.09;100.00;98026.22;5025217;28;20234;-78
2023/11/01 05:43:38;;;;;;;10.10;0.70;;;;;;;9.05;100.00;98024.16;5028404;28;20036;-75
2023/11/01 05:46:07;;;;;;;2.55;0.68;;;;;;;9.18;100.00;98051.91;5038691;28;20386;-78
2023/11/01 05:48:33;;;;;;;2.83;0.45;;;;;;;9.14;100.00;98039.91;5028686;28;20032;-76
2023/11/01 05:51:02;;;;;;;3.05;0.80;;;;;;;9.04;100.00;98025.16;5030123;28;20109;-77
2023/11/01 05:53:28;;;;;;;3.50;0.73;;;;;;;9.07;100.00;98046.34;5044944;28;20043;-76
2023/11/01 05:55:53;;;;;;;5.68;0.95;;;;;;;8.92;100.00;98019.63;5025628;28;20096;-77
2023/11/01 05:58:19;;;;;;;5.10;1.27;;;;;;;8.99;100.00;98040.13;5032746;28;20025;-77
2023/11/01 06:00:45;;;;;;;6.40;1.05;;;;;;;9.04;100.00;98044.91;5025904;28;20029;-76
2023/11/01 06:03:11;;;;;;;1.52;0.50;;;;;;;8.94;100.00;98039.94;5025613;28;20028;-75
2023/11/01 06:05:38;;;;;;;4.60;0.50;;;;;;;8.80;100.00;98010.50;5025584;28;20017;-78
2023/11/01 06:08:05;;;;;;;2.63;0.60;;;;;;;8.96;100.00;98045.97;5025905;28;20064;-76
2023/11/01 06:10:31;;;;;;;5.00;0.80;;;;;;;9.00;100.00;98039.09;5027949;28;20258;-78
2023/11/01 06:12:57;;;;;;;4.53;0.60;;;;;;;8.93;100.00;98026.66;5044330;28;20067;-82
2023/11/01 06:15:22;;;;;;;3.55;0.45;;;;;;;9.07;100.00;98046.34;5020629;28;20033;-79
2023/11/01 06:17:48;;;;;;;2.13;0.60;;;;;;;8.99;100.00;98032.03;5025691;28;20017;-79
2023/11/01 06:20:15;;;;;;;2.25;0.73;;;;;;;9.19;100.00;98040.06;5043093;28;20025;-78
2023/11/01 06:22:40;;;;;;;6.28;0.63;;;;;;;9.17;100.00;98023.28;5024898;28;20249;-71
2023/11/01 06:25:08;;;;;;;6.72;0.55;;;;;;;9.37;100.00;98043.94;5026467;28;20083;-71
2023/11/01 06:27:34;;;;;;;4.40;0.88;;;;;;;9.38;100.00;98041.03;5022442;28;20234;-72
2023/11/01 06:29:59;;;;;;;3.95;0.88;;;;;;;9.42;100.00;98014.44;5034960;28;20021;-72
2023/11/01 06:32:24;;;;;;;4.10;0.60;;;;;;;9.59;100.00;98030.97;5019925;28;20246;-70
2023/11/01 06:34:50;;;;;;;2.60;0.50;;;;;;;9.65;100.00;98024.69;5041112;28;20139;-71
2023/11/01 06:37:15;;;;;;;0.55;0.35;;;;;;;9.73;100.00;98021.75;5037548;28;20025;-71
2023/11/01 06:39:40;;;;;;;2.90;0.68;;;;;;;9.83;100.00;98018.56;5018975;28;20029;-71
2023/11/01 06:42:06;;;;;;;3.67;0.65;;;;;;;10.02;100.00;98019.47;5039816;28;20196;-71
2023/11/01 06:44:32;;;;;;;2.65;0.63;;;;;;;10.10;100.00;98013.81;5037636;28;20076;-73
2023/11/01 06:46:57;;;;;;;7.38;0.47;;;;;;;10.29;100.00;98004.72;5019231;28;20033;-72
2023/11/01 06:49:23;;;;;;;3.13;0.52;;;;;;;11.01;100.00;98004.22;5040468;28;20022;-71
2023/11/01 06:51:48;;;;;;;4.65;0.70;;;;;;;12.56;100.00;97989.06;5021952;28;20030;-72
2023/11/01 06:54:13;;;;;;;2.90;0.50;;;;;;;13.18;100.00;97987.69;5039030;28;20259;-72
2023/11/01 06:56:45;;;;;;;3.80;0.60;;;;;;;13.51;100.00;97997.91;5035871;28;20021;-71
2023/11/01 06:59:14;;;;;;;2.45;0.68;;;;;;;13.47;100.00;98007.63;5035480;28;20127;-70
2023/11/01 07:01:40;;;;;;;5.00;0.60;;;;;;;12.66;100.00;97989.31;5037269;28;20056;-70
2023/11/01 07:04:05;;;;;;;3.13;0.50;;;;;;;12.00;100.00;98010.25;5040035;28;20025;-77
2023/11/01 07:06:30;;;;;;;2.58;0.60;;;;;;;11.71;100.00;98008.31;5030021;28;20029;-75
2023/11/01 07:08:56;;;;;;;3.67;0.70;;;;;;;11.49;100.00;97998.00;5023896;28;20100;-75
2023/11/01 07:11:24;;;;;;;2.42;0.80;;;;;;;11.61;100.00;98003.47;5051413;28;20218;-76
2023/11/01 07:13:49;;;;;;;2.22;0.55;;;;;;;11.98;100.00;97982.53;5016902;28;20022;-74
2023/11/01 07:16:14;;;;;;;3.75;1.27;;;;;;;13.19;100.00;97976.59;5024458;28;20096;-76
2023/11/01 07:18:40;;;;;;;2.03;0.90;;;;;;;13.46;100.00;97974.16;5041924;28;20195;-74
2023/11/01 07:21:05;;;;;;;2.75;0.90;;;;;;;12.88;100.00;97977.84;5040717;28;20029;-74
2023/11/01 07:23:31;;;;;;;2.67;0.93;;;;;;;12.50;100.00;97992.75;5043848;28;20092;-74
2023/11/01 07:25:56;;;;;;;1.63;0.68;;;;;;;12.88;100.00;97989.50;5024236;28;20044;-74
2023/11/01 07:28:22;;;;;;;2.63;0.77;;;;;;;12.73;100.00;97967.47;5042509;28;20091;-74
2023/11/01 07:30:47;;;;;;;2.45;0.90;;;;;;;12.56;100.00;97970.06;5027166;28;20021;-74
2023/11/01 07:33:12;;;;;;;4.82;1.10;;;;;;;12.54;100.00;97980.34;5039319;28;20025;-74
2023/11/01 07:35:38;;;;;;;2.42;0.90;;;;;;;12.50;100.00;97976.47;5024407;28;20021;-73
2023/11/01 07:38:03;;;;;;;2.95;0.75;;;;;;;12.46;100.00;97986.13;5042319;28;20032;-72
2023/11/01 07:40:29;;;;;;;2.85;0.90;;;;;;;13.12;100.00;97967.75;5025519;28;20035;-72
2023/11/01 07:42:54;;;;;;;5.78;0.68;;;;;;;14.54;100.00;97960.53;5039000;28;20044;-72
2023/11/01 07:45:19;;;;;;;5.35;0.60;;;;;;;15.59;100.00;97955.06;5036672;28;20033;-72
2023/11/01 07:47:45;;;;;;;2.20;0.60;;;;;;;15.50;100.00;97967.47;5039581;28;20287;-73
2023/11/01 07:50:12;;;;;;;2.83;0.38;;;;;;;15.50;100.00;97962.84;5042960;28;20028;-73
2023/11/01 07:52:37;;;;;;;1.60;0.80;;;;;;;15.60;100.00;97961.31;5050123;28;20029;-72
2023/11/01 07:55:03;;;;;;;1.05;0.50;;;;;;;15.25;100.00;97976.19;5049608;28;20021;-72
2023/11/01 07:57:28;;;;;;;3.75;0.75;;;;;;;14.96;100.00;97959.19;5047443;28;20026;-72
2023/11/01 07:59:53;;;;;;;3.15;0.65;;;;;;;14.60;100.00;97956.81;5035317;28;20010;-72
2023/11/01 08:02:19;;;;;;;3.72;0.73;;;;;;;14.59;100.00;97968.78;5046686;28;20222;-72
2023/11/01 08:04:44;;;;;;;2.70;0.70;;;;;;;14.65;100.00;97950.63;5044258;28;20022;-73
2023/11/01 08:07:11;;;;;;;2.17;0.60;;;;;;;16.13;100.00;97946.03;5017397;28;20030;-71
2023/11/01 08:09:36;;;;;;;1.83;0.60;;;;;;;18.85;100.00;97923.06;5039118;28;20179;-72
2023/11/01 08:12:03;;;;;;;4.95;0.52;;;;;;;20.07;96.51;97943.56;5031588;28;20021;-72
2023/11/01 08:14:28;;;;;;;7.00;0.60;;;;;;;18.92;98.66;97932.63;5043153;28;20021;-73
2023/11/01 08:16:55;;;;;;;2.50;0.77;;;;;;;19.68;95.19;97930.66;5034214;28;20060;-72
2023/11/01 08:19:23;;;;;;;2.10;0.68;;;;;;;20.54;83.18;97931.09;5026635;28;20022;-73
2023/11/01 08:21:48;;;;;;;4.10;0.47;;;;;;;21.68;78.13;97929.50;5043569;28;20101;-73
2023/11/01 08:24:14;;;;;;;3.50;0.68;;;;;;;21.65;73.14;97938.34;5048179;28;20086;-72
2023/11/01 08:26:39;;;;;;;1.88;0.50;;;;;;;22.84;70.96;97922.34;5043606;28;20025;-72
2023/11/01 08:29:04;;;;;;;2.85;0.90;;;;;;;23.04;66.31;97910.13;5044178;28;20017;-72
2023/11/01 08:31:30;;;;;;;4.63;1.05;;;;;;;23.40;66.21;97909.38;5044401;28;20025;-74
2023/11/01 08:33:56;;;;;;;1.38;0.52;;;;;;;23.67;64.80;97914.03;5027617;28;20334;-72
2023/11/01 08:36:22;;;;;;;2.20;0.73;;;;;;;24.15;62.96;97918.19;5045425;28;20028;-72
2023/11/01 08:38:47;;;;;;;3.08;0.52;;;;;;;24.27;61.82;97927.53;5026700;28;20227;-72
2023/11/01 08:41:13;;;;;;;2.42;0.40;;;;;;;24.92;59.00;97917.03;5032680;28;20379;-73
2023/11/01 08:43:41;;;;;;;4.00;0.63;;;;;;;24.37;59.07;97914.63;5028109;28;20334;-73
2023/11/01 08:46:07;;;;;;;1.00;0.50;;;;;;;23.51;60.22;97924.59;5017806;28;20330;-73
2023/11/01 08:48:32;;;;;;;2.13;0.43;;;;;;;21.87;62.39;97946.00;5017894;28;20022;-72
2023/11/01 08:50:58;;;;;;;1.88;0.70;;;;;;;21.19;65.23;97936.16;5035454;28;20017;-73
2023/11/01 08:53:23;;;;;;;5.20;0.85;;;;;;;21.28;66.54;97945.41;5058626;28;20025;-73
2023/11/01 08:55:48;;;;;;;1.92;0.50;;;;;;;22.92;62.88;97938.22;5045183;28;20025;-75
2023/11/01 08:58:13;;;;;;;1.45;0.65;;;;;;;22.70;62.56;97914.06;5049007;28;20021;-74
2023/11/01 09:00:39;;;;;;;4.03;0.80;;;;;;;22.76;62.37;97912.81;5044195;28;20315;-74
2023/11/01 09:03:05;;;;;;;3.70;0.65;;;;;;;23.64;60.50;97931.22;5049464;28;20250;-75
2023/11/01 09:05:30;;;;;;;2.45;0.52;;;;;;;22.79;62.15;97908.63;5059364;28;20053;-74
2023/11/01 09:07:55;;;;;;;3.00;0.70;;;;;;;22.81;62.68;97914.69;5025240;28;20343;-74
2023/11/01 09:10:21;;;;;;;1.77;0.60;;;;;;;23.59;60.60;97923.88;5025901;28;20027;-72
2023/11/01 09:12:46;;;;;;;4.50;0.88;;;;;;;23.49;60.71;97917.75;5038565;28;20017;-72
2023/11/01 09:15:11;;;;;;;2.85;0.93;;;;;;;23.76;60.91;97933.47;5038048;28;20040;-74
2023/11/01 09:17:36;;;;;;;4.50;1.15;;;;;;;24.14;60.08;97922.91;5027864;28;20021;-74
2023/11/01 09:20:02;;;;;;;2.28;0.57;;;;;;;24.18;59.04;97920.31;5042648;28;20032;-72
2023/11/01 09:22:29;;;;;;;5.13;1.00;;;;;;;25.36;57.54;97920.78;5047855;28;21276;-72
2023/11/01 09:24:54;;;;;;;3.50;0.60;;;;;;;24.63;57.11;97912.03;5040782;28;20017;-72
2023/11/01 09:27:20;;;;;;;2.38;0.60;;;;;;;23.33;59.14;97920.03;5025269;28;20049;-72
2023/11/01 09:29:45;;;;;;;1.58;0.60;;;;;;;23.36;60.40;97903.66;5031177;28;20017;-73
2023/11/01 09:32:13;;;;;;;3.92;0.70;;;;;;;22.94;61.37;97913.06;5041531;28;20029;-74
2023/11/01 09:34:39;;;;;;;6.50;0.80;;;;;;;22.07;62.21;97922.84;5036034;28;20036;-73
2023/11/01 09:37:05;;;;;;;1.50;0.50;;;;;;;21.41;65.34;97932.91;5023693;28;20017;-73
2023/11/01 09:39:30;;;;;;;2.58;0.70;;;;;;;20.82;68.50;97932.19;5035310;28;20397;-73
2023/11/01 09:42:34;;;;;;;2.08;0.77;;;;;;;20.07;73.45;97925.16;5018841;28;20111;-73
2023/11/01 09:45:02;;;;;;;4.43;0.90;;;;;;;20.53;71.97;97913.75;5030895;28;20037;-74
2023/11/01 09:47:28;;;;;;;2.83;1.00;;;;;;;21.00;71.81;97922.34;5041369;28;20034;-77
2023/11/01 09:49:54;;;;;;;2.40;0.75;;;;;;;20.84;71.90;97912.66;5015751;28;20028;-74
2023/11/01 09:52:21;;;;;;;3.08;0.50;;;;;;;22.44;64.84;97912.88;5025288;28;20022;-75
2023/11/01 09:54:46;;;;;;;2.50;0.77;;;;;;;21.69;65.26;97897.25;5038769;28;20388;-73
2023/11/01 09:57:15;;;;;;;5.72;0.68;;;;;;;21.67;67.23;97912.16;5040935;28;20037;-75
2023/11/01 09:59:41;;;;;;;3.88;0.50;;;;;;;22.34;65.16;97891.03;5022220;28;20301;-74
2023/11/01 10:02:08;;;;;;;1.48;0.40;;;;;;;21.30;65.36;97921.19;5020384;28;20025;-75
2023/11/01 10:04:35;;;;;;;1.35;0.40;;;;;;;21.29;65.98;97918.72;5041297;28;20048;-75
2023/11/01 10:07:00;;;;;;;0.82;0.40;;;;;;;21.20;63.90;97902.06;5041493;28;20029;-74
2023/11/01 10:09:28;;;;;;;1.83;0.40;;;;;;;22.95;61.38;97898.13;5040010;28;20235;-75
2023/11/01 10:11:53;;;;;;;5.60;0.70;;;;;;;21.40;64.09;97893.53;5036000;28;20029;-76
2023/11/01 10:14:27;;;;;;;1.17;0.45;;;;;;;20.41;67.01;97887.78;5038807;28;20273;-74
2023/11/01 10:16:52;;;;;;;1.77;0.60;;;;;;;19.96;68.27;97885.16;5025654;28;20032;-76
2023/11/01 10:19:17;;;;;;;1.67;0.60;;;;;;;20.08;70.25;97873.81;5028059;28;20025;-75
2023/11/01 10:21:43;;;;;;;2.33;0.50;;;;;;;22.04;64.06;97877.44;5022410;28;20048;-75
2023/11/01 10:24:08;;;;;;;2.05;0.40;;;;;;;21.75;64.49;97876.81;5039560;28;20033;-75
2023/11/01 10:26:35;;;;;;;1.48;0.47;;;;;;;21.62;64.48;97872.88;5040889;28;20096;-75
2023/11/01 10:29:02;;;;;;;1.85;0.50;;;;;;;23.23;60.83;97857.56;5041725;28;20021;-77
2023/11/01 10:31:27;;;;;;;2.83;0.55;;;;;;;24.48;56.97;97852.41;5028625;28;20357;-75
2023/11/01 10:33:53;;;;;;;1.85;0.35;;;;;;;25.20;53.89;97856.75;5026819;28;20042;-75
2023/11/01 10:36:19;;;;;;;5.03;0.60;;;;;;;24.76;55.06;97830.91;5024103;28;20040;-77
2023/11/01 10:38:46;;;;;;;1.70;0.45;;;;;;;25.75;54.07;97835.94;5039486;28;20021;-76
2023/11/01 10:41:11;;;;;;;2.97;0.65;;;;;;;24.89;53.56;97826.38;5041438;28;20175;-75
2023/11/01 10:43:37;;;;;;;2.17;0.93;;;;;;;25.62;53.13;97845.22;5025411;28;20021;-76
2023/11/01 10:46:02;;;;;;;1.35;0.60;;;;;;;24.84;52.99;97834.81;5041443;28;20037;-75
2023/11/01 10:48:29;;;;;;;2.15;0.60;;;;;;;23.65;55.93;97835.38;5041124;28;20025;-75
2023/11/01 10:50:56;;;;;;;3.80;0.77;;;;;;;23.99;55.60;97834.84;5037817;28;21288;-75
2023/11/01 10:53:23;;;;;;;1.42;0.30;;;;;;;23.60;57.00;97833.56;5043454;28;20022;-75
2023/11/01 10:55:52;;;;;;;2.00;0.47;;;;;;;23.67;56.31;97831.19;5041720;28;20079;-77
2023/11/01 10:58:24;;;;;;;0.57;0.40;;;;;;;24.05;56.60;97819.75;5024181;28;20048;-75
2023/11/01 11:01:07;;;;;;;2.15;0.50;;;;;;;23.58;56.22;97805.47;5040184;28;20027;-75
2023/11/01 11:04:04;;;;;;;3.30;0.50;;;;;;;24.93;54.02;97821.81;5039948;28;20100;-74
2023/11/01 11:06:44;;;;;;;1.13;0.40;;;;;;;25.46;52.24;97795.84;5018573;28;20029;-75
2023/11/01 11:09:22;;;;;;;3.45;0.68;;;;;;;25.59;52.06;97799.59;5046151;28;20083;-76
2023/11/01 11:12:24;;;;;;;1.63;0.47;;;;;;;25.40;52.82;97799.13;5041912;28;20226;-75
2023/11/01 11:14:51;;;;;;;3.70;0.77;;;;;;;24.90;51.92;97795.59;5026190;28;20021;-75
2023/11/01 11:17:17;;;;;;;2.22;0.50;;;;;;;25.75;51.84;97774.97;5022740;28;20096;-75
2023/11/01 11:20:14;;;;;;;2.10;0.30;;;;;;;26.64;50.66;97776.06;5040232;28;20022;-75
2023/11/01 11:22:57;;;;;;;3.65;0.40;;;;;;;27.30;47.60;97767.19;5022864;28;20052;-77
2023/11/01 11:25:38;;;;;;;1.70;0.47;;;;;;;27.19;47.90;97771.50;5039144;28;20028;-75